Time;durP1;ratioP1;P1;durP2;ratioP2;P2;SDS_P1;SDS_P2;PMS_P1;PMS_P2;Temp;Humidity;BMP_temperature;BMP_pressure;BME280_temperature;BME280_humidity;BME280_pressure;Samples;Min_cycle;Max_cycle;Signal;HPM_P1;HPM_P2
2021/04/04 00:00:04;;;;;;;;;;;5.70;99.90;;;;;;13126504;22;20327;-86
2021/04/04 00:05:06;;;;;;;;;;;5.80;99.90;;;;;;13153474;22;19989;-87
2021/04/04 00:10:13;;;;;;;;;;;5.70;99.90;;;;;;13180205;22;20398;-86
2021/04/04 00:15:15;;;;;;;;;;;6.50;99.90;;;;;;13179801;22;20317;-86
2021/04/04 00:20:17;;;;;;;;;;;5.70;99.90;;;;;;13152101;22;19953;-86
2021/04/04 00:25:18;;;;;;;;;;;5.60;99.90;;;;;;13167141;22;19961;-85
2021/04/04 00:30:20;;;;;;;;;;;5.60;99.90;;;;;;13162957;22;19968;-86
2021/04/04 00:35:22;;;;;;;;;;;5.60;99.90;;;;;;13179772;22;19928;-86
2021/04/04 00:40:27;;;;;;;;;;;5.60;99.90;;;;;;13178103;22;19924;-86
2021/04/04 00:45:30;;;;;;;;;;;6.80;99.90;;;;;;13178365;22;20393;-86
2021/04/04 00:50:34;;;;;;;;;;;5.60;99.90;;;;;;13179660;22;19919;-86
2021/04/04 00:55:35;;;;;;;;;;;5.70;99.90;;;;;;13178864;22;19953;-85
2021/04/04 01:00:37;;;;;;;;;;;6.70;99.90;;;;;;13178806;22;19993;-86
2021/04/04 01:05:41;;;;;;;;;;;5.70;99.90;;;;;;13178778;22;19994;-86
2021/04/04 01:10:44;;;;;;;;;;;5.70;99.90;;;;;;13180345;22;19953;-86
2021/04/04 01:15:45;;;;;;;;;;;5.70;99.90;;;;;;13178492;22;19925;-86
2021/04/04 01:20:50;;;;;;;;;;;5.80;99.90;;;;;;13178910;22;19929;-86
2021/04/04 01:26:04;;;;;;;;;;;5.70;99.90;;;;;;13179989;22;20243;-86
2021/04/04 01:31:06;;;;;;;;;;;6.00;99.90;;;;;;13182515;22;19928;-86
2021/04/04 01:36:09;;;;;;;;;;;5.60;99.90;;;;;;13182197;22;19925;-85
2021/04/04 01:41:28;;;;;;;;;;;5.70;99.90;;;;;;13182452;22;19956;-86
2021/04/04 01:46:30;;;;;;;;;;;5.80;99.90;;;;;;13182266;22;19918;-86
2021/04/04 01:51:31;;;;;;;;;;;5.70;99.90;;;;;;13181185;22;19928;-86
2021/04/04 01:56:34;;;;;;;;;;;5.70;99.90;;;;;;13182625;22;19922;-85
2021/04/04 02:01:36;;;;;;;;;;;5.80;99.90;;;;;;13181092;22;20335;-86
2021/04/04 02:06:38;;;;;;;;;;;5.70;99.90;;;;;;13180854;22;20732;-86
2021/04/04 02:11:39;;;;;;;;;;;5.70;99.90;;;;;;13180867;22;20237;-85
2021/04/04 02:16:43;;;;;;;;;;;6.60;99.90;;;;;;13181519;22;20016;-86
2021/04/04 02:21:47;;;;;;;;;;;5.70;99.90;;;;;;13180645;22;20258;-86
2021/04/04 02:26:50;;;;;;;;;;;5.70;99.90;;;;;;13180498;22;19924;-86
2021/04/04 02:32:02;;;;;;;;;;;5.70;99.90;;;;;;13181772;22;20316;-85
2021/04/04 02:37:09;;;;;;;;;;;5.70;99.90;;;;;;13180029;22;20335;-85
2021/04/04 02:42:11;;;;;;;;;;;5.70;99.90;;;;;;13181262;22;19922;-86
2021/04/04 02:47:12;;;;;;;;;;;5.80;99.90;;;;;;13180031;22;20327;-86
2021/04/04 02:52:16;;;;;;;;;;;5.80;99.90;;;;;;13183702;22;19938;-85
2021/04/04 02:57:18;;;;;;;;;;;5.70;99.90;;;;;;13180335;22;19922;-86
2021/04/04 03:02:19;;;;;;;;;;;5.60;99.90;;;;;;13179821;22;19924;-86
2021/04/04 03:07:22;;;;;;;;;;;5.90;99.90;;;;;;13180318;22;19961;-85
2021/04/04 03:12:26;;;;;;;;;;;6.00;99.90;;;;;;13179639;22;20267;-85
2021/04/04 03:17:28;;;;;;;;;;;5.70;99.90;;;;;;13179546;22;20001;-85
2021/04/04 03:22:30;;;;;;;;;;;6.00;99.90;;;;;;13179204;22;19919;-85
2021/04/04 03:27:31;;;;;;;;;;;5.70;99.90;;;;;;13179173;22;20339;-86
2021/04/04 03:32:36;;;;;;;;;;;5.70;99.90;;;;;;13179883;22;19918;-85
2021/04/04 03:37:37;;;;;;;;;;;5.60;99.90;;;;;;13179913;22;20063;-85
2021/04/04 03:42:38;;;;;;;;;;;5.80;99.90;;;;;;13153767;22;19993;-85
2021/04/04 03:47:40;;;;;;;;;;;5.80;99.90;;;;;;13152812;22;20238;-85
2021/04/04 03:52:41;;;;;;;;;;;5.70;99.90;;;;;;13179677;22;19918;-85
2021/04/04 03:57:43;;;;;;;;;;;5.70;99.90;;;;;;13179644;22;19929;-85
2021/04/04 04:02:45;;;;;;;;;;;5.70;99.90;;;;;;13178571;22;20434;-86
2021/04/04 04:07:47;;;;;;;;;;;5.70;99.90;;;;;;13179467;22;19919;-85
2021/04/04 04:12:49;;;;;;;;;;;5.50;99.90;;;;;;13179330;22;19918;-86
2021/04/04 04:17:51;;;;;;;;;;;5.80;99.90;;;;;;13152547;22;20331;-86
2021/04/04 04:22:52;;;;;;;;;;;6.20;99.90;;;;;;13151897;22;19928;-85
2021/04/04 04:27:54;;;;;;;;;;;5.70;99.90;;;;;;13179148;22;19933;-85
2021/04/04 04:32:57;;;;;;;;;;;5.70;99.90;;;;;;13179824;22;19944;-85
2021/04/04 04:37:59;;;;;;;;;;;6.70;99.90;;;;;;13179097;22;19993;-86
2021/04/04 04:43:00;;;;;;;;;;;5.60;99.90;;;;;;13151678;22;19940;-86
2021/04/04 04:48:02;;;;;;;;;;;5.70;99.90;;;;;;13152826;22;19924;-86
2021/04/04 04:53:04;;;;;;;;;;;5.50;99.90;;;;;;13151890;22;19957;-86
2021/04/04 04:58:05;;;;;;;;;;;5.50;99.90;;;;;;13178139;22;19929;-85
2021/04/04 05:03:07;;;;;;;;;;;5.60;99.90;;;;;;13181210;22;19946;-85
2021/04/04 05:08:09;;;;;;;;;;;5.60;99.90;;;;;;13182960;22;19993;-85
2021/04/04 05:13:11;;;;;;;;;;;5.70;99.90;;;;;;13155752;22;19922;-85
2021/04/04 05:18:12;;;;;;;;;;;5.60;99.90;;;;;;13184818;22;19929;-85
2021/04/04 05:23:18;;;;;;;;;;;5.50;99.90;;;;;;13183434;22;20354;-85
2021/04/04 05:28:20;;;;;;;;;;;5.50;99.90;;;;;;13182626;22;19997;-85
2021/04/04 05:33:21;;;;;;;;;;;5.60;99.90;;;;;;13183127;22;19940;-86
2021/04/04 05:38:22;;;;;;;;;;;6.40;99.90;;;;;;13183131;22;19993;-85
2021/04/04 05:43:25;;;;;;;;;;;6.90;99.90;;;;;;13181540;22;19997;-85
2021/04/04 05:48:34;;;;;;;;;;;6.00;99.90;;;;;;13182230;22;19918;-85
2021/04/04 05:53:46;;;;;;;;;;;5.70;99.90;;;;;;13183562;22;19918;-85
2021/04/04 05:58:58;;;;;;;;;;;5.70;99.90;;;;;;13182242;22;19945;-86
2021/04/04 06:04:18;;;;;;;;;;;5.80;99.90;;;;;;13182485;22;20251;-86
2021/04/04 06:09:28;;;;;;;;;;;5.80;99.90;;;;;;13180823;22;20009;-86
2021/04/04 06:14:53;;;;;;;;;;;5.80;99.90;;;;;;13182520;22;19942;-85
2021/04/04 06:20:06;;;;;;;;;;;5.90;99.90;;;;;;13182221;22;19950;-85
2021/04/04 06:25:14;;;;;;;;;;;5.80;99.90;;;;;;13183010;22;19918;-86
2021/04/04 06:30:21;;;;;;;;;;;5.90;99.90;;;;;;13182108;22;19919;-85
2021/04/04 06:35:31;;;;;;;;;;;5.90;99.90;;;;;;13154228;22;19983;-85
2021/04/04 06:40:38;;;;;;;;;;;6.00;99.90;;;;;;13182913;22;19945;-85
2021/04/04 06:45:48;;;;;;;;;;;5.90;99.90;;;;;;13154044;22;19936;-85
2021/04/04 06:50:55;;;;;;;;;;;6.00;99.90;;;;;;13182268;22;19925;-85
2021/04/04 06:55:56;;;;;;;;;;;6.00;99.90;;;;;;13154505;22;19989;-85
2021/04/04 07:01:00;;;;;;;;;;;6.00;99.90;;;;;;13154054;22;19942;-85
2021/04/04 07:06:16;;;;;;;;;;;6.10;99.90;;;;;;13182153;22;19919;-85
2021/04/04 07:11:21;;;;;;;;;;;6.10;99.90;;;;;;13152822;22;20295;-85
2021/04/04 07:16:41;;;;;;;;;;;6.60;99.90;;;;;;13183318;22;19996;-85
2021/04/04 07:22:04;;;;;;;;;;;6.40;99.90;;;;;;13152988;22;19976;-85
2021/04/04 07:27:06;;;;;;;;;;;6.30;99.90;;;;;;13181618;22;19929;-85
2021/04/04 07:32:34;;;;;;;;;;;6.60;99.90;;;;;;13153699;22;20002;-85
2021/04/04 07:37:39;;;;;;;;;;;6.40;99.90;;;;;;13173547;22;20385;-85
2021/04/04 07:42:46;;;;;;;;;;;6.40;99.90;;;;;;13153876;22;19925;-84
2021/04/04 07:48:06;;;;;;;;;;;6.50;99.90;;;;;;13180955;22;19922;-84
2021/04/04 07:53:18;;;;;;;;;;;6.50;99.90;;;;;;13183018;22;20413;-84
2021/04/04 07:58:29;;;;;;;;;;;6.50;99.90;;;;;;13183184;22;19956;-83
2021/04/04 08:03:50;;;;;;;;;;;6.80;99.90;;;;;;13183814;22;19925;-84
2021/04/04 08:09:12;;;;;;;;;;;6.70;99.90;;;;;;13180597;22;19929;-84
2021/04/04 08:14:16;;;;;;;;;;;6.80;99.90;;;;;;13152971;22;19918;-84
2021/04/04 08:19:17;;;;;;;;;;;6.90;99.90;;;;;;13178999;22;19989;-84
2021/04/04 08:24:22;;;;;;;;;;;6.80;99.90;;;;;;13181557;22;19928;-83
2021/04/04 08:29:25;;;;;;;;;;;6.60;99.90;;;;;;13153870;22;19961;-84
2021/04/04 08:34:28;;;;;;;;;;;6.70;99.90;;;;;;13181354;22;20323;-84
2021/04/04 08:39:31;;;;;;;;;;;6.80;99.90;;;;;;13182036;22;20313;-85
2021/04/04 08:44:35;;;;;;;;;;;7.10;99.90;;;;;;13156473;22;19981;-85
2021/04/04 08:49:37;;;;;;;;;;;7.30;99.90;;;;;;13186512;22;19961;-85
2021/04/04 08:54:40;;;;;;;;;;;7.00;99.90;;;;;;13185354;22;20295;-85
2021/04/04 08:59:43;;;;;;;;;;;7.10;99.90;;;;;;13158549;22;19981;-85
2021/04/04 09:04:44;;;;;;;;;;;7.00;99.90;;;;;;13158636;22;19918;-84
2021/04/04 09:09:46;;;;;;;;;;;7.00;99.90;;;;;;13186907;22;19954;-85
2021/04/04 09:14:49;;;;;;;;;;;6.90;99.90;;;;;;13133401;22;19918;-84
2021/04/04 09:19:57;;;;;;;;;;;7.70;99.90;;;;;;13182910;22;20323;-84
2021/04/04 09:25:01;;;;;;;;;;;6.80;99.90;;;;;;13153136;22;19981;-84
2021/04/04 09:30:03;;;;;;;;;;;6.90;99.90;;;;;;13181666;22;19926;-84
2021/04/04 09:35:06;;;;;;;;;;;7.00;99.90;;;;;;13186155;22;19942;-84
2021/04/04 09:40:08;;;;;;;;;;;7.30;99.90;;;;;;13157487;22;20339;-84
2021/04/04 09:45:12;;;;;;;;;;;7.40;99.90;;;;;;13155010;22;19918;-85
2021/04/04 09:50:17;;;;;;;;;;;7.30;99.90;;;;;;13185186;22;20337;-85
2021/04/04 09:55:19;;;;;;;;;;;7.30;99.90;;;;;;13185999;22;19985;-85
2021/04/04 10:00:45;;;;;;;;;;;7.10;99.90;;;;;;13183253;22;20339;-84
2021/04/04 10:05:48;;;;;;;;;;;7.10;99.90;;;;;;13158024;22;19918;-84
2021/04/04 10:10:50;;;;;;;;;;;7.30;99.90;;;;;;13183971;22;19983;-84
2021/04/04 10:15:52;;;;;;;;;;;7.50;99.90;;;;;;13156696;22;19988;-84
2021/04/04 10:20:55;;;;;;;;;;;8.10;99.90;;;;;;13182658;22;19919;-85
2021/04/04 10:26:06;;;;;;;;;;;7.40;99.90;;;;;;13156555;22;19949;-84
2021/04/04 10:31:08;;;;;;;;;;;7.50;99.90;;;;;;13156521;22;19925;-84
2021/04/04 10:36:14;;;;;;;;;;;7.60;99.90;;;;;;13156782;22;20287;-84
2021/04/04 10:41:32;;;;;;;;;;;7.60;99.90;;;;;;13156774;22;19986;-84
2021/04/04 10:46:35;;;;;;;;;;;7.60;99.90;;;;;;13157469;22;19953;-84
2021/04/04 10:51:37;;;;;;;;;;;7.90;99.90;;;;;;13184738;22;19922;-84
2021/04/04 10:56:38;;;;;;;;;;;8.10;99.90;;;;;;13182730;22;19948;-84
2021/04/04 11:01:40;;;;;;;;;;;8.60;99.90;;;;;;13155751;22;19953;-84
2021/04/04 11:06:43;;;;;;;;;;;8.20;99.90;;;;;;13155301;22;20335;-84
2021/04/04 11:11:45;;;;;;;;;;;8.90;99.90;;;;;;13182349;22;19997;-84
2021/04/04 11:16:47;;;;;;;;;;;8.20;99.90;;;;;;13156076;22;19993;-84
2021/04/04 11:21:48;;;;;;;;;;;8.30;99.90;;;;;;13129049;22;19985;-84
2021/04/04 11:26:51;;;;;;;;;;;8.60;99.90;;;;;;13177135;22;20437;-84
2021/04/04 11:31:52;;;;;;;;;;;8.80;99.90;;;;;;13154677;22;19983;-84
2021/04/04 11:36:54;;;;;;;;;;;8.30;99.90;;;;;;13156359;22;19926;-85
2021/04/04 11:41:56;;;;;;;;;;;8.20;99.90;;;;;;13182787;22;19918;-85
2021/04/04 11:46:59;;;;;;;;;;;8.40;99.90;;;;;;13181917;22;20339;-85
2021/04/04 11:52:00;;;;;;;;;;;8.50;99.90;;;;;;13181804;22;19940;-86
2021/04/04 11:57:02;;;;;;;;;;;8.40;99.90;;;;;;13155539;22;19918;-85
2021/04/04 12:02:03;;;;;;;;;;;8.50;99.90;;;;;;13149329;22;19922;-85
2021/04/04 12:07:06;;;;;;;;;;;8.40;99.90;;;;;;13145309;22;19928;-85
2021/04/04 12:12:07;;;;;;;;;;;8.40;99.90;;;;;;13144823;22;20017;-84
2021/04/04 12:17:09;;;;;;;;;;;8.30;99.90;;;;;;13173645;22;19986;-85
2021/04/04 12:22:11;;;;;;;;;;;8.40;99.90;;;;;;13172352;22;19922;-85
2021/04/04 12:27:13;;;;;;;;;;;8.60;99.90;;;;;;13143903;22;19922;-85
2021/04/04 12:32:28;;;;;;;;;;;8.50;99.90;;;;;;13143611;22;19918;-85
2021/04/04 12:37:31;;;;;;;;;;;8.50;99.90;;;;;;13143640;22;19979;-85
2021/04/04 12:42:33;;;;;;;;;;;8.50;99.90;;;;;;13170759;22;20339;-84
2021/04/04 12:47:38;;;;;;;;;;;8.60;99.90;;;;;;13140826;22;20350;-85
2021/04/04 12:52:39;;;;;;;;;;;8.60;99.90;;;;;;13167186;22;20254;-85
2021/04/04 12:57:42;;;;;;;;;;;8.60;99.90;;;;;;13140139;22;19922;-85
2021/04/04 13:02:55;;;;;;;;;;;8.70;99.90;;;;;;13143130;22;19922;-84
2021/04/04 13:07:56;;;;;;;;;;;8.50;99.90;;;;;;13144207;22;20009;-84
2021/04/04 13:12:58;;;;;;;;;;;8.80;99.90;;;;;;13144051;22;19922;-84
2021/04/04 13:17:59;;;;;;;;;;;8.60;99.90;;;;;;13143462;22;19993;-85
2021/04/04 13:23:00;;;;;;;;;;;8.50;99.90;;;;;;13150228;22;20228;-85
2021/04/04 13:28:01;;;;;;;;;;;8.70;99.90;;;;;;13153321;22;19928;-84
2021/04/04 13:33:03;;;;;;;;;;;8.90;99.90;;;;;;13180988;22;19919;-84
2021/04/04 13:38:05;;;;;;;;;;;9.10;99.40;;;;;;13180897;22;20411;-84
2021/04/04 13:43:07;;;;;;;;;;;9.30;99.00;;;;;;13153067;22;19946;-85
2021/04/04 13:48:09;;;;;;;;;;;9.20;98.90;;;;;;13153113;22;19922;-85
2021/04/04 13:53:18;;;;;;;;;;;9.40;98.70;;;;;;13125822;22;19918;-84
2021/04/04 13:58:33;;;;;;;;;;;9.20;98.90;;;;;;13149430;22;19946;-84
2021/04/04 14:03:36;;;;;;;;;;;8.80;98.90;;;;;;13151898;22;20339;-84
2021/04/04 14:08:39;;;;;;;;;;;8.80;99.10;;;;;;13180354;22;19918;-84
2021/04/04 14:13:40;;;;;;;;;;;9.70;99.80;;;;;;13197633;22;19922;-84
2021/04/04 14:18:45;;;;;;;;;;;8.70;99.30;;;;;;13147924;22;19993;-85
2021/04/04 14:23:46;;;;;;;;;;;9.10;99.90;;;;;;13151589;22;19948;-84
2021/04/04 14:28:48;;;;;;;;;;;9.00;98.60;;;;;;13153619;22;19922;-85
2021/04/04 14:33:50;;;;;;;;;;;9.20;99.90;;;;;;13179987;22;20306;-84
2021/04/04 14:38:52;;;;;;;;;;;10.40;99.80;;;;;;13124874;22;19929;-85
2021/04/04 14:48:59;;;;;;;;;;;9.60;98.60;;;;;;13182153;22;19941;-85
2021/04/04 14:54:00;;;;;;;;;;;9.10;98.30;;;;;;13145875;22;19989;-84
2021/04/04 14:59:01;;;;;;;;;;;9.40;99.10;;;;;;13119767;22;19946;-85
2021/04/04 15:04:03;;;;;;;;;;;9.40;99.70;;;;;;13174090;22;19965;-85
2021/04/04 15:09:05;;;;;;;;;;;9.50;98.40;;;;;;13145297;22;19919;-85
2021/04/04 15:14:06;;;;;;;;;;;9.30;99.40;;;;;;13145397;22;20347;-86
2021/04/04 15:19:07;;;;;;;;;;;9.30;99.90;;;;;;13147145;22;19926;-85
2021/04/04 15:24:09;;;;;;;;;;;9.50;99.60;;;;;;13119002;22;19922;-85
2021/04/04 15:29:10;;;;;;;;;;;9.40;99.80;;;;;;13119202;22;19930;-85
2021/04/04 15:34:11;;;;;;;;;;;9.30;99.20;;;;;;13145050;22;19922;-85
2021/04/04 15:39:12;;;;;;;;;;;9.30;99.40;;;;;;13172641;22;19929;-85
2021/04/04 15:44:13;;;;;;;;;;;9.00;99.90;;;;;;13127302;22;19924;-85
2021/04/04 15:49:15;;;;;;;;;;;9.40;99.40;;;;;;13182574;22;19922;-85
2021/04/04 15:54:16;;;;;;;;;;;9.40;99.40;;;;;;13127886;22;19950;-85
2021/04/04 15:59:18;;;;;;;;;;;9.10;99.60;;;;;;13183012;22;19949;-85
2021/04/04 16:04:19;;;;;;;;;;;9.20;99.30;;;;;;13182843;22;19922;-85
2021/04/04 16:09:20;;;;;;;;;;;9.10;99.40;;;;;;13155227;22;19922;-85
2021/04/04 16:14:22;;;;;;;;;;;9.30;99.90;;;;;;13155695;22;19918;-85
2021/04/04 16:19:23;;;;;;;;;;;9.30;99.40;;;;;;13128140;22;20365;-85
2021/04/04 16:24:24;;;;;;;;;;;9.00;99.80;;;;;;13123080;22;19997;-85
2021/04/04 16:29:25;;;;;;;;;;;8.90;99.90;;;;;;13182876;22;19989;-84
2021/04/04 16:34:27;;;;;;;;;;;9.10;99.90;;;;;;13175429;22;20359;-85
2021/04/04 16:39:28;;;;;;;;;;;8.80;99.90;;;;;;13154522;22;20319;-84
2021/04/04 16:44:30;;;;;;;;;;;9.00;99.90;;;;;;13126173;22;20231;-85
2021/04/04 16:49:33;;;;;;;;;;;9.00;99.90;;;;;;13154037;22;20243;-85
2021/04/04 16:54:35;;;;;;;;;;;8.60;99.90;;;;;;13181199;22;19918;-84
2021/04/04 16:59:36;;;;;;;;;;;8.50;99.90;;;;;;13152769;22;19918;-85
2021/04/04 17:04:38;;;;;;;;;;;8.50;99.90;;;;;;13159178;22;19918;-84
2021/04/04 17:09:39;;;;;;;;;;;8.40;99.90;;;;;;13157768;22;20692;-84
2021/04/04 17:14:41;;;;;;;;;;;8.20;99.90;;;;;;13185794;22;20384;-84
2021/04/04 17:19:42;;;;;;;;;;;8.00;99.90;;;;;;13158257;22;19918;-84
2021/04/04 17:24:43;;;;;;;;;;;7.80;99.90;;;;;;13132154;22;19986;-84
2021/04/04 17:29:45;;;;;;;;;;;7.70;99.90;;;;;;13157758;22;19925;-84
2021/04/04 17:34:47;;;;;;;;;;;7.70;99.90;;;;;;13186083;22;19986;-84
2021/04/04 17:39:49;;;;;;;;;;;7.60;99.90;;;;;;13184948;22;20378;-84
2021/04/04 17:44:51;;;;;;;;;;;7.60;99.90;;;;;;13158601;22;19918;-84
2021/04/04 17:49:52;;;;;;;;;;;8.20;99.90;;;;;;13158198;22;19925;-84
2021/04/04 17:54:54;;;;;;;;;;;7.60;99.90;;;;;;13155318;22;19925;-84
2021/04/04 17:59:55;;;;;;;;;;;7.50;99.90;;;;;;13185688;22;19981;-84
2021/04/04 18:05:00;;;;;;;;;;;7.90;99.90;;;;;;13157440;22;19919;-84
2021/04/04 18:15:22;;;;;;;;;;;7.00;99.90;;;;;;13184783;22;19981;-84
2021/04/04 18:20:24;;;;;;;;;;;6.90;99.90;;;;;;13155039;22;19945;-83
2021/04/04 18:25:25;;;;;;;;;;;6.70;99.90;;;;;;13185355;22;19918;-83
2021/04/04 18:30:27;;;;;;;;;;;6.60;99.90;;;;;;13155442;22;20609;-83
2021/04/04 18:35:28;;;;;;;;;;;7.50;99.90;;;;;;13179284;22;19926;-83
2021/04/04 18:40:29;;;;;;;;;;;6.30;99.90;;;;;;13183252;22;19994;-83
2021/04/04 18:45:31;;;;;;;;;;;6.30;99.90;;;;;;13155368;22;20375;-83
2021/04/04 18:50:34;;;;;;;;;;;6.00;99.90;;;;;;13153590;22;19972;-83
2021/04/04 18:55:36;;;;;;;;;;;6.20;99.90;;;;;;13184139;22;19922;-83
2021/04/04 19:00:38;;;;;;;;;;;5.90;99.90;;;;;;13129303;22;19919;-83
2021/04/04 19:05:40;;;;;;;;;;;5.80;99.90;;;;;;13153896;22;19949;-83
2021/04/04 19:10:47;;;;;;;;;;;5.70;99.90;;;;;;13152529;22;19918;-83
2021/04/04 19:15:48;;;;;;;;;;;5.70;99.90;;;;;;13181364;22;19928;-83
2021/04/04 19:20:50;;;;;;;;;;;5.80;99.90;;;;;;13181111;22;22115;-83
2021/04/04 19:25:52;;;;;;;;;;;5.60;99.90;;;;;;13182264;22;20558;-83
2021/04/04 19:30:53;;;;;;;;;;;5.40;99.90;;;;;;13127973;22;20254;-83
2021/04/04 19:35:54;;;;;;;;;;;5.40;99.90;;;;;;13129495;22;19925;-83
2021/04/04 19:40:55;;;;;;;;;;;5.30;99.90;;;;;;13183296;22;19986;-83
2021/04/04 19:45:57;;;;;;;;;;;5.10;99.90;;;;;;13155189;22;19952;-83
2021/04/04 19:50:58;;;;;;;;;;;5.20;99.90;;;;;;13155136;22;19957;-83
2021/04/04 19:56:00;;;;;;;;;;;5.50;99.90;;;;;;13181876;22;20302;-83
2021/04/04 20:01:02;;;;;;;;;;;5.20;99.90;;;;;;13153360;22;20339;-83
2021/04/04 20:06:05;;;;;;;;;;;5.20;99.90;;;;;;13155401;22;19922;-83
2021/04/04 20:11:06;;;;;;;;;;;5.10;99.90;;;;;;13181225;22;20410;-83
2021/04/04 20:16:07;;;;;;;;;;;4.90;99.90;;;;;;13155242;22;19957;-83
2021/04/04 20:21:08;;;;;;;;;;;6.10;99.90;;;;;;13115232;22;19922;-83
2021/04/04 20:26:10;;;;;;;;;;;6.60;99.90;;;;;;13115854;22;19926;-83
2021/04/04 20:31:11;;;;;;;;;;;4.90;99.90;;;;;;13116452;22;20002;-83
2021/04/04 20:36:19;;;;;;;;;;;5.00;99.90;;;;;;13115676;22;19989;-83
2021/04/04 20:41:20;;;;;;;;;;;6.10;99.90;;;;;;13115044;22;20321;-83
2021/04/04 20:46:22;;;;;;;;;;;4.90;99.90;;;;;;13115336;22;20347;-83
2021/04/04 20:51:24;;;;;;;;;;;5.00;99.90;;;;;;13114758;22;19960;-83
2021/04/04 20:56:26;;;;;;;;;;;6.00;99.90;;;;;;13116836;22;19978;-83
2021/04/04 21:01:27;;;;;;;;;;;5.60;99.90;;;;;;13113395;22;19946;-83
2021/04/04 21:06:28;;;;;;;;;;;5.00;99.90;;;;;;13114701;22;19989;-84
2021/04/04 21:11:30;;;;;;;;;;;4.90;99.90;;;;;;13115902;22;20243;-83
2021/04/04 21:16:32;;;;;;;;;;;5.50;99.90;;;;;;13116580;22;20013;-84
2021/04/04 21:21:34;;;;;;;;;;;4.90;99.90;;;;;;13161450;22;19918;-84
2021/04/04 21:26:35;;;;;;;;;;;4.90;99.90;;;;;;13182178;22;19985;-84
2021/04/04 21:31:37;;;;;;;;;;;4.80;99.90;;;;;;13155040;22;19992;-84
2021/04/04 21:36:39;;;;;;;;;;;4.80;99.90;;;;;;13154389;22;19989;-84
2021/04/04 21:41:40;;;;;;;;;;;4.80;99.90;;;;;;13154739;22;19985;-84
2021/04/04 21:46:41;;;;;;;;;;;5.10;99.90;;;;;;13157471;22;19962;-84
2021/04/04 21:51:43;;;;;;;;;;;4.80;99.90;;;;;;13158670;22;19997;-84
2021/04/04 21:56:45;;;;;;;;;;;4.90;99.90;;;;;;13157667;22;19984;-84
2021/04/04 22:01:46;;;;;;;;;;;4.80;99.90;;;;;;13157132;22;19918;-84
2021/04/04 22:06:51;;;;;;;;;;;4.80;99.90;;;;;;13157183;22;19918;-84
2021/04/04 22:11:57;;;;;;;;;;;4.80;99.90;;;;;;13185126;22;19919;-83
2021/04/04 22:17:11;;;;;;;;;;;4.80;99.90;;;;;;13185860;22;19941;-84
2021/04/04 22:22:19;;;;;;;;;;;5.10;99.90;;;;;;13094440;22;19922;-84
2021/04/04 22:27:22;;;;;;;;;;;4.90;99.90;;;;;;13119985;22;19938;-84
2021/04/04 22:32:23;;;;;;;;;;;4.90;99.90;;;;;;13118381;22;19919;-84
2021/04/04 22:37:25;;;;;;;;;;;4.90;99.90;;;;;;13119547;22;20021;-84
2021/04/04 22:42:26;;;;;;;;;;;5.90;99.90;;;;;;13120045;22;20007;-84
2021/04/04 22:47:27;;;;;;;;;;;4.90;99.90;;;;;;13119811;22;19986;-83
2021/04/04 22:52:29;;;;;;;;;;;5.10;99.90;;;;;;13119596;22;19926;-84
2021/04/04 22:57:30;;;;;;;;;;;5.20;99.90;;;;;;13118102;22;20217;-84
2021/04/04 23:02:31;;;;;;;;;;;5.20;99.90;;;;;;13117516;22;20289;-84
2021/04/04 23:07:33;;;;;;;;;;;5.30;99.90;;;;;;13090598;22;20639;-84
2021/04/04 23:12:37;;;;;;;;;;;5.20;99.90;;;;;;13117582;22;19953;-84
2021/04/04 23:17:39;;;;;;;;;;;5.10;99.90;;;;;;13118996;22;19993;-84
2021/04/04 23:22:41;;;;;;;;;;;5.50;99.90;;;;;;13116752;22;19922;-84
2021/04/04 23:27:42;;;;;;;;;;;5.10;99.90;;;;;;13117319;22;20385;-84
2021/04/04 23:32:44;;;;;;;;;;;5.10;99.90;;;;;;13117490;22;19942;-84
2021/04/04 23:37:45;;;;;;;;;;;5.20;99.90;;;;;;13115741;22;19919;-84
2021/04/04 23:42:48;;;;;;;;;;;5.40;99.90;;;;;;13117521;22;19989;-84
2021/04/04 23:47:49;;;;;;;;;;;6.90;99.90;;;;;;13117839;22;20252;-84
2021/04/04 23:52:51;;;;;;;;;;;6.10;99.90;;;;;;13116969;22;19997;-84
2021/04/04 23:57:52;;;;;;;;;;;5.20;99.90;;;;;;13117303;22;19944;-84
